Time;durP1;ratioP1;P1;durP2;ratioP2;P2;SDS_P1;SDS_P2;PMS_P1;PMS_P2;Temp;Humidity;BMP_temperature;BMP_pressure;BME280_temperature;BME280_humidity;BME280_pressure;Samples;Min_cycle;Max_cycle;Signal;HPM_P1;HPM_P2
2020/12/01 00:02:01;;;;;;;15.48;10.18;;;3.10;99.90;;;;;;5074509;28;20189;-58
2020/12/01 00:04:27;;;;;;;17.73;10.93;;;3.00;99.90;;;;;;5075235;28;20165;-58
2020/12/01 00:06:52;;;;;;;16.17;10.88;;;3.10;99.90;;;;;;5075580;28;20253;-58
2020/12/01 00:09:18;;;;;;;15.50;10.23;;;3.10;99.90;;;;;;5075397;28;20164;-58
2020/12/01 00:11:43;;;;;;;15.18;10.32;;;3.10;99.90;;;;;;5075270;28;20171;-58
2020/12/01 00:14:09;;;;;;;15.43;10.65;;;3.10;99.90;;;;;;5075007;28;20206;-58
2020/12/01 00:16:34;;;;;;;15.98;11.05;;;3.00;99.90;;;;;;5075699;28;20168;-58
2020/12/01 00:19:00;;;;;;;16.77;11.48;;;3.10;99.90;;;;;;5075517;28;20163;-58
2020/12/01 00:21:25;;;;;;;17.70;11.15;;;3.10;99.90;;;;;;5075348;28;20188;-58
2020/12/01 00:23:51;;;;;;;16.80;10.90;;;3.10;99.90;;;;;;5074938;28;20182;-58
2020/12/01 00:26:18;;;;;;;15.75;10.45;;;3.10;99.90;;;;;;5075250;28;20561;-58
2020/12/01 00:28:47;;;;;;;15.93;10.93;;;3.10;99.90;;;;;;5074904;28;20251;-58
2020/12/01 00:31:14;;;;;;;17.88;11.93;;;3.10;99.90;;;;;;5075288;28;20164;-58
2020/12/01 00:33:40;;;;;;;16.10;11.63;;;3.10;99.90;;;;;;5074811;28;20235;-59
2020/12/01 00:36:06;;;;;;;18.70;11.88;;;3.10;99.90;;;;;;5074857;28;20613;-58
2020/12/01 00:38:32;;;;;;;18.98;11.68;;;3.10;99.90;;;;;;5075120;28;20163;-58
2020/12/01 00:40:57;;;;;;;20.63;12.23;;;3.10;99.90;;;;;;5075000;28;20160;-58
2020/12/01 00:43:23;;;;;;;18.45;11.93;;;3.10;99.90;;;;;;5075123;28;20266;-58
2020/12/01 00:45:48;;;;;;;17.25;11.70;;;3.10;99.90;;;;;;5074759;28;20164;-59
2020/12/01 00:48:15;;;;;;;19.35;12.18;;;3.10;99.90;;;;;;5075041;28;20176;-58
2020/12/01 00:50:41;;;;;;;18.52;11.77;;;3.10;99.90;;;;;;5074685;28;20167;-58
2020/12/01 00:53:07;;;;;;;17.63;11.98;;;3.10;99.90;;;;;;5074559;28;20204;-58
2020/12/01 00:55:32;;;;;;;19.80;11.95;;;3.10;99.90;;;;;;5074937;28;20202;-58
2020/12/01 00:57:58;;;;;;;19.58;12.30;;;3.10;99.90;;;;;;5075114;28;20202;-58
2020/12/01 01:00:27;;;;;;;19.45;12.32;;;3.10;99.90;;;;;;5074812;28;20309;-58
2020/12/01 01:02:52;;;;;;;20.13;12.40;;;3.10;99.90;;;;;;5074629;28;20168;-58
2020/12/01 01:05:18;;;;;;;19.92;11.95;;;3.10;99.90;;;;;;5074538;28;20181;-58
2020/12/01 01:07:43;;;;;;;19.17;12.20;;;3.10;99.90;;;;;;5074526;28;20168;-59
2020/12/01 01:10:19;;;;;;;19.95;12.38;;;3.10;99.90;;;;;;5074492;28;20174;-58
2020/12/01 01:12:44;;;;;;;21.10;12.95;;;3.10;99.90;;;;;;5074495;28;20184;-58
2020/12/01 01:15:10;;;;;;;20.17;12.43;;;3.10;99.90;;;;;;5074726;28;20581;-58
2020/12/01 01:17:36;;;;;;;20.55;12.70;;;3.10;99.90;;;;;;5074519;28;20164;-58
2020/12/01 01:20:03;;;;;;;19.63;13.07;;;3.10;99.90;;;;;;5074278;28;20183;-58
2020/12/01 01:22:28;;;;;;;18.58;11.98;;;3.10;99.90;;;;;;5074431;28;20485;-59
2020/12/01 01:24:53;;;;;;;18.75;12.40;;;3.10;99.90;;;;;;5074748;28;20165;-59
2020/12/01 01:27:19;;;;;;;19.38;12.55;;;3.10;99.90;;;;;;5074400;28;20169;-58
2020/12/01 01:29:44;;;;;;;18.27;12.30;;;3.10;99.90;;;;;;5074902;28;20171;-58
2020/12/01 01:32:10;;;;;;;19.23;12.30;;;3.10;99.90;;;;;;5074349;28;20493;-58
2020/12/01 01:34:35;;;;;;;20.75;13.18;;;3.10;99.90;;;;;;5074674;28;20207;-58
2020/12/01 01:37:03;;;;;;;19.20;12.93;;;3.10;99.90;;;;;;5078047;28;20164;-58
2020/12/01 01:39:28;;;;;;;20.88;13.38;;;3.10;99.90;;;;;;5078008;28;20583;-59
2020/12/01 01:41:54;;;;;;;19.92;13.60;;;3.20;99.90;;;;;;5078372;28;20229;-58
2020/12/01 01:44:30;;;;;;;23.30;14.20;;;3.10;99.90;;;;;;5078820;28;20168;-58
2020/12/01 01:47:02;;;;;;;20.80;13.18;;;3.10;99.90;;;;;;5077910;28;20228;-59
2020/12/01 01:49:34;;;;;;;20.95;13.70;;;3.10;99.90;;;;;;5077247;28;20202;-58
2020/12/01 01:51:59;;;;;;;21.58;13.23;;;3.20;99.90;;;;;;5076987;28;20164;-58
2020/12/01 01:54:26;;;;;;;21.58;13.63;;;3.20;99.90;;;;;;5078334;28;20179;-58
2020/12/01 01:56:55;;;;;;;23.98;14.05;;;3.20;99.90;;;;;;5076819;28;20172;-58
2020/12/01 01:59:21;;;;;;;23.35;13.48;;;3.20;99.90;;;;;;5076991;28;20195;-58
2020/12/01 02:01:47;;;;;;;24.15;14.00;;;3.20;99.90;;;;;;5076959;28;20195;-58
2020/12/01 02:04:14;;;;;;;21.25;13.80;;;3.20;99.90;;;;;;5076661;28;20587;-58
2020/12/01 02:06:48;;;;;;;21.38;13.48;;;3.20;99.90;;;;;;5077806;28;20268;-58
2020/12/01 02:09:17;;;;;;;21.17;13.52;;;3.20;99.90;;;;;;5077064;28;20349;-58
2020/12/01 02:11:44;;;;;;;22.75;13.50;;;3.20;99.90;;;;;;5077538;28;20164;-58
2020/12/01 02:14:20;;;;;;;22.48;13.38;;;3.20;99.90;;;;;;5076539;28;20692;-58
2020/12/01 02:16:52;;;;;;;23.63;13.60;;;3.10;99.90;;;;;;5076481;28;20259;-58
2020/12/01 02:19:21;;;;;;;20.77;12.82;;;3.10;99.90;;;;;;5077431;28;20533;-58
2020/12/01 02:21:47;;;;;;;22.90;13.93;;;3.10;99.90;;;;;;5077235;28;20172;-58
2020/12/01 02:24:17;;;;;;;20.40;13.50;;;3.10;99.90;;;;;;5076463;28;20172;-58
2020/12/01 02:26:48;;;;;;;21.38;13.95;;;3.10;99.90;;;;;;5077268;28;20170;-58
2020/12/01 02:29:17;;;;;;;21.15;13.30;;;3.10;99.90;;;;;;5077539;28;20242;-58
2020/12/01 02:31:43;;;;;;;21.58;14.25;;;3.20;99.90;;;;;;5077372;28;20556;-58
2020/12/01 02:34:11;;;;;;;20.65;13.10;;;3.10;99.90;;;;;;5077360;28;20282;-58
2020/12/01 02:36:37;;;;;;;19.35;12.85;;;3.10;99.90;;;;;;5077267;28;20172;-57
2020/12/01 02:39:04;;;;;;;21.48;13.82;;;3.10;99.90;;;;;;5077089;28;20164;-58
2020/12/01 02:41:30;;;;;;;20.63;13.85;;;3.10;99.90;;;;;;5076912;28;20168;-58
2020/12/01 02:43:55;;;;;;;21.80;13.68;;;3.10;99.90;;;;;;5077515;28;20649;-58
2020/12/01 02:46:21;;;;;;;20.70;13.95;;;3.10;99.90;;;;;;5076351;28;20233;-58
2020/12/01 02:48:47;;;;;;;25.73;13.77;;;3.20;99.90;;;;;;5077610;28;20168;-58
2020/12/01 02:51:12;;;;;;;22.33;14.25;;;3.20;99.90;;;;;;5077012;28;20513;-58
2020/12/01 02:53:38;;;;;;;24.95;14.93;;;3.20;99.90;;;;;;5076764;28;20283;-58
2020/12/01 02:56:03;;;;;;;22.25;13.60;;;3.20;99.90;;;;;;5077130;28;20249;-58
2020/12/01 02:58:29;;;;;;;21.42;13.32;;;3.10;99.90;;;;;;5080197;28;20172;-58
2020/12/01 03:00:54;;;;;;;20.80;13.38;;;3.10;99.90;;;;;;5082631;28;20157;-58
2020/12/01 03:03:20;;;;;;;21.42;13.50;;;3.10;99.90;;;;;;5085403;28;20238;-58
2020/12/01 03:05:45;;;;;;;19.67;12.93;;;3.10;99.90;;;;;;5088470;28;20203;-58
2020/12/01 03:08:11;;;;;;;23.60;13.95;;;3.10;99.90;;;;;;5089431;28;20225;-58
2020/12/01 03:10:36;;;;;;;24.13;13.55;;;3.10;99.90;;;;;;5087605;28;20180;-58
2020/12/01 03:13:02;;;;;;;22.10;14.13;;;3.00;99.90;;;;;;5087156;28;20278;-58
2020/12/01 03:15:28;;;;;;;24.00;15.18;;;3.00;99.90;;;;;;5088807;28;20190;-57
2020/12/01 03:17:53;;;;;;;23.95;14.48;;;3.00;99.90;;;;;;5087031;28;20243;-59
2020/12/01 03:20:19;;;;;;;21.77;13.80;;;3.00;99.90;;;;;;5076732;28;20221;-58
2020/12/01 03:22:44;;;;;;;22.80;13.90;;;3.00;99.90;;;;;;5076135;28;20605;-58
2020/12/01 03:25:10;;;;;;;21.58;13.88;;;3.00;99.90;;;;;;5076146;28;20179;-57
2020/12/01 03:27:35;;;;;;;23.17;14.73;;;3.00;99.90;;;;;;5076111;28;20168;-58
2020/12/01 03:30:04;;;;;;;21.95;14.38;;;3.00;99.90;;;;;;5076064;28;20156;-58
2020/12/01 03:32:29;;;;;;;23.40;14.00;;;3.00;99.90;;;;;;5075915;28;20176;-58
2020/12/01 03:34:55;;;;;;;23.83;14.82;;;3.10;99.90;;;;;;5075958;28;20164;-57
2020/12/01 03:37:20;;;;;;;20.00;13.65;;;3.10;99.90;;;;;;5075984;28;20254;-58
2020/12/01 03:39:46;;;;;;;23.55;14.00;;;3.10;99.90;;;;;;5076111;28;20168;-58
2020/12/01 03:42:11;;;;;;;21.00;13.70;;;3.10;99.90;;;;;;5075711;28;20247;-58
2020/12/01 03:44:37;;;;;;;21.98;14.43;;;3.10;99.90;;;;;;5075752;28;20174;-58
2020/12/01 03:47:02;;;;;;;22.50;14.25;;;3.10;99.90;;;;;;5075612;28;20192;-57
2020/12/01 03:49:28;;;;;;;23.50;13.65;;;3.10;99.90;;;;;;5075981;28;20604;-57
2020/12/01 03:51:53;;;;;;;25.27;14.32;;;3.10;99.90;;;;;;5075499;28;20170;-58
2020/12/01 03:54:19;;;;;;;22.20;14.13;;;3.10;99.90;;;;;;5075791;28;20192;-58
2020/12/01 03:56:44;;;;;;;22.00;13.98;;;3.10;99.90;;;;;;5075695;28;20214;-58
2020/12/01 03:59:10;;;;;;;20.88;13.15;;;3.10;99.90;;;;;;5074632;28;20542;-58
2020/12/01 04:01:35;;;;;;;21.27;13.98;;;3.10;99.90;;;;;;5075462;28;20171;-58
2020/12/01 04:04:01;;;;;;;22.35;13.30;;;3.10;99.90;;;;;;5075397;28;20169;-58
2020/12/01 04:06:26;;;;;;;24.65;14.27;;;3.10;99.90;;;;;;5075549;28;20225;-58
2020/12/01 04:08:52;;;;;;;24.33;13.88;;;3.20;99.90;;;;;;5075321;28;20168;-58
2020/12/01 04:11:18;;;;;;;21.95;14.25;;;3.20;99.90;;;;;;5075460;28;20170;-57
2020/12/01 04:13:43;;;;;;;22.40;14.23;;;3.20;99.90;;;;;;5075491;28;20188;-58
2020/12/01 04:16:09;;;;;;;20.00;12.93;;;3.20;99.90;;;;;;5075157;28;20217;-58
2020/12/01 04:18:34;;;;;;;20.25;13.48;;;3.20;99.90;;;;;;5075067;28;20225;-58
2020/12/01 04:21:00;;;;;;;21.63;13.65;;;3.20;99.90;;;;;;5075368;28;20172;-58
2020/12/01 04:23:25;;;;;;;23.65;14.57;;;3.20;99.90;;;;;;5075042;28;20200;-58
2020/12/01 04:25:51;;;;;;;23.45;14.75;;;3.10;99.90;;;;;;5075604;28;20175;-58
2020/12/01 04:28:16;;;;;;;20.20;13.30;;;3.10;99.90;;;;;;5074955;28;20179;-58
2020/12/01 04:30:42;;;;;;;24.55;14.27;;;3.10;99.90;;;;;;5075529;28;20172;-58
2020/12/01 04:33:07;;;;;;;22.95;14.60;;;3.10;99.90;;;;;;5074885;28;20523;-58
2020/12/01 04:35:33;;;;;;;25.67;14.57;;;3.10;99.90;;;;;;5075218;28;20180;-57
2020/12/01 04:38:03;;;;;;;25.10;14.75;;;3.10;99.90;;;;;;5074885;28;20168;-57
2020/12/01 04:40:32;;;;;;;20.65;13.73;;;3.10;99.90;;;;;;5075187;28;20221;-58
2020/12/01 04:43:03;;;;;;;26.15;14.93;;;3.10;99.90;;;;;;5075028;28;20480;-58
2020/12/01 04:45:29;;;;;;;22.08;13.65;;;3.10;99.90;;;;;;5074246;28;20160;-58
2020/12/01 04:48:00;;;;;;;22.50;14.38;;;3.10;99.90;;;;;;5074748;28;20567;-58
2020/12/01 04:50:45;;;;;;;21.02;13.75;;;3.10;99.90;;;;;;5074080;28;20164;-58
2020/12/01 04:53:51;;;;;;;22.30;14.73;;;3.10;99.90;;;;;;5073743;28;20635;-58
2020/12/01 04:56:25;;;;;;;21.73;13.65;;;3.10;99.90;;;;;;5074016;28;20499;-58
2020/12/01 04:59:04;;;;;;;22.30;14.38;;;3.10;99.90;;;;;;5074837;28;20186;-57
2020/12/01 05:01:50;;;;;;;20.60;13.63;;;3.10;99.90;;;;;;5074741;28;20555;-58
2020/12/01 05:04:24;;;;;;;23.30;14.20;;;3.10;99.90;;;;;;5074625;28;20184;-58
2020/12/01 05:09:40;;;;;;;22.90;14.45;;;3.20;99.90;;;;;;5074919;28;20179;-58
2020/12/01 05:12:22;;;;;;;21.00;13.88;;;3.10;99.90;;;;;;5077668;28;20165;-58
2020/12/01 05:14:57;;;;;;;24.08;14.27;;;3.10;99.90;;;;;;5077756;28;20248;-58
2020/12/01 05:17:48;;;;;;;23.75;14.18;;;3.10;99.90;;;;;;5077503;28;20163;-58
2020/12/01 05:20:13;;;;;;;24.42;14.10;;;3.10;99.90;;;;;;5077807;28;20157;-57
2020/12/01 05:22:46;;;;;;;25.52;14.10;;;3.10;99.90;;;;;;5083477;28;20186;-58
2020/12/01 05:25:28;;;;;;;24.40;14.27;;;3.10;99.90;;;;;;5085741;28;20152;-58
2020/12/01 05:28:14;;;;;;;21.27;13.68;;;3.10;99.90;;;;;;5081430;28;20153;-58
2020/12/01 05:30:42;;;;;;;21.40;12.88;;;3.20;99.90;;;;;;5078217;28;20148;-58
2020/12/01 05:33:22;;;;;;;22.38;13.30;;;3.20;99.90;;;;;;5078218;28;20257;-57
2020/12/01 05:36:22;;;;;;;21.75;13.57;;;3.20;99.90;;;;;;5078496;28;20540;-58
2020/12/01 05:39:17;;;;;;;20.35;13.40;;;3.20;99.90;;;;;;5077990;28;20156;-58
2020/12/01 05:41:44;;;;;;;22.50;13.98;;;3.20;99.90;;;;;;5078749;28;20588;-58
2020/12/01 05:44:28;;;;;;;26.35;13.27;;;3.20;99.90;;;;;;5077962;28;20550;-58
2020/12/01 05:47:07;;;;;;;21.85;13.15;;;3.20;99.90;;;;;;5078654;28;20580;-57
2020/12/01 05:49:44;;;;;;;18.48;13.20;;;3.20;99.90;;;;;;5077278;28;20160;-58
2020/12/01 05:52:19;;;;;;;23.60;13.93;;;3.20;99.90;;;;;;5077683;28;20184;-58
2020/12/01 05:55:00;;;;;;;22.05;13.48;;;3.20;99.90;;;;;;5077733;28;20187;-58
2020/12/01 05:57:28;;;;;;;25.27;14.40;;;3.20;99.90;;;;;;5072302;28;20177;-58
2020/12/01 06:00:06;;;;;;;21.00;13.00;;;3.20;99.90;;;;;;5055693;28;20161;-57
2020/12/01 06:02:38;;;;;;;20.52;12.55;;;3.30;99.90;;;;;;5057140;28;20265;-57
2020/12/01 06:05:05;;;;;;;22.92;14.15;;;3.30;99.90;;;;;;5054548;28;20165;-58
2020/12/01 06:07:31;;;;;;;20.58;12.40;;;3.30;99.90;;;;;;5054210;28;20359;-57
2020/12/01 06:09:59;;;;;;;23.13;13.32;;;3.30;99.90;;;;;;5054403;28;20256;-58
2020/12/01 06:12:43;;;;;;;22.95;13.50;;;3.30;99.90;;;;;;5055208;28;20169;-58
2020/12/01 06:15:15;;;;;;;20.65;12.52;;;3.30;99.90;;;;;;5055745;28;20169;-57
2020/12/01 06:18:06;;;;;;;23.30;13.45;;;3.30;99.90;;;;;;5054256;28;20594;-58
2020/12/01 06:20:50;;;;;;;19.15;12.75;;;3.30;99.90;;;;;;5056461;28;20164;-58
2020/12/01 06:23:29;;;;;;;19.15;12.32;;;3.30;99.90;;;;;;5057205;28;20149;-58
2020/12/01 06:26:31;;;;;;;20.15;13.25;;;3.30;99.90;;;;;;5057031;28;20153;-57
2020/12/01 06:29:11;;;;;;;19.23;12.88;;;3.30;99.90;;;;;;5056279;28;20237;-57
2020/12/01 06:31:49;;;;;;;21.42;12.70;;;3.40;99.90;;;;;;5056260;28;20145;-57
2020/12/01 06:34:33;;;;;;;18.52;12.50;;;3.40;99.90;;;;;;5056742;28;20656;-57
2020/12/01 06:37:19;;;;;;;20.77;13.38;;;3.40;99.90;;;;;;5056927;28;20225;-58
2020/12/01 06:40:09;;;;;;;23.55;13.15;;;3.40;99.90;;;;;;5056101;28;20544;-58
2020/12/01 06:42:41;;;;;;;18.65;12.75;;;3.40;99.90;;;;;;5056077;28;20154;-57
2020/12/01 06:45:43;;;;;;;22.23;14.02;;;3.40;99.90;;;;;;5055876;28;20168;-58
2020/12/01 06:48:21;;;;;;;21.05;12.82;;;3.40;99.90;;;;;;5057009;28;20441;-57
2020/12/01 06:50:55;;;;;;;21.80;13.80;;;3.40;99.90;;;;;;5055844;28;20157;-57
2020/12/01 06:53:33;;;;;;;22.50;13.57;;;3.40;99.90;;;;;;5055744;28;20199;-58
2020/12/01 06:56:00;;;;;;;19.75;13.05;;;3.30;99.90;;;;;;5056901;28;20161;-57
2020/12/01 06:58:25;;;;;;;20.85;13.30;;;3.30;99.90;;;;;;5056481;28;20165;-57
2020/12/01 07:01:06;;;;;;;21.02;13.07;;;3.30;99.90;;;;;;5056354;28;20161;-57
2020/12/01 07:03:32;;;;;;;21.83;13.32;;;3.30;99.90;;;;;;5056316;28;20159;-57
2020/12/01 07:06:09;;;;;;;19.92;12.80;;;3.30;99.90;;;;;;5056201;28;20165;-58
2020/12/01 07:08:34;;;;;;;20.60;13.55;;;3.40;99.90;;;;;;5055564;28;20164;-56
2020/12/01 07:11:02;;;;;;;21.63;13.30;;;3.40;99.90;;;;;;5056769;28;20169;-57
2020/12/01 07:13:49;;;;;;;20.55;13.73;;;3.40;99.90;;;;;;5056396;28;20271;-57
2020/12/01 07:16:30;;;;;;;22.08;14.02;;;3.40;99.90;;;;;;5061121;28;20153;-58
2020/12/01 07:19:05;;;;;;;18.90;12.75;;;3.40;99.90;;;;;;5060376;28;20151;-58
2020/12/01 07:22:12;;;;;;;19.38;12.75;;;3.50;99.90;;;;;;5066186;28;20157;-58
2020/12/01 07:25:04;;;;;;;19.73;12.70;;;3.50;99.90;;;;;;5062911;28;20185;-58
2020/12/01 07:28:02;;;;;;;18.38;13.18;;;3.50;99.90;;;;;;5066302;28;20165;-58
2020/12/01 07:30:29;;;;;;;20.45;13.48;;;3.50;99.90;;;;;;5063563;28;20184;-58
2020/12/01 07:32:57;;;;;;;21.50;13.63;;;3.60;99.90;;;;;;5056089;28;20168;-56
2020/12/01 07:35:51;;;;;;;21.73;12.93;;;3.60;99.90;;;;;;5055733;28;20192;-58
2020/12/01 07:38:33;;;;;;;18.42;12.23;;;3.60;99.90;;;;;;5056000;28;20157;-59
2020/12/01 07:41:12;;;;;;;18.88;12.60;;;3.60;99.90;;;;;;5055708;28;20494;-57
2020/12/01 07:43:38;;;;;;;22.95;14.13;;;3.60;99.90;;;;;;5056494;28;20192;-57
2020/12/01 07:46:04;;;;;;;18.23;12.48;;;3.60;99.90;;;;;;5055578;28;20506;-58
2020/12/01 07:48:30;;;;;;;19.40;13.45;;;3.70;99.90;;;;;;5055597;28;20164;-58
2020/12/01 07:51:06;;;;;;;20.55;13.63;;;3.70;99.90;;;;;;5055329;28;20647;-58
2020/12/01 07:53:40;;;;;;;20.42;13.18;;;3.70;99.90;;;;;;5054232;28;20696;-58
2020/12/01 07:56:05;;;;;;;18.65;12.63;;;3.70;99.90;;;;;;5055505;28;20458;-58
2020/12/01 07:58:31;;;;;;;21.45;13.68;;;3.70;99.90;;;;;;5054558;28;20172;-58
2020/12/01 08:01:03;;;;;;;23.05;13.68;;;3.70;99.90;;;;;;5055132;28;20234;-59
2020/12/01 08:03:34;;;;;;;21.65;14.20;;;3.70;99.90;;;;;;5055044;28;20252;-58
2020/12/01 08:06:02;;;;;;;19.50;12.90;;;3.80;99.90;;;;;;5054129;28;20148;-58
2020/12/01 08:08:32;;;;;;;19.27;12.57;;;3.80;99.90;;;;;;5055048;28;20177;-58
2020/12/01 08:10:57;;;;;;;20.35;13.00;;;3.80;99.90;;;;;;5055619;28;20302;-58
2020/12/01 08:13:23;;;;;;;20.48;13.23;;;3.80;99.90;;;;;;5054873;28;20224;-58
2020/12/01 08:15:58;;;;;;;21.02;14.05;;;3.80;99.90;;;;;;5053934;28;20223;-58
2020/12/01 08:18:24;;;;;;;21.13;12.65;;;3.90;99.90;;;;;;5054867;28;20145;-58
2020/12/01 08:20:49;;;;;;;21.52;13.95;;;3.90;99.90;;;;;;5054724;28;20161;-58
2020/12/01 08:23:22;;;;;;;21.33;13.63;;;3.90;99.90;;;;;;5053833;28;20176;-58
2020/12/01 08:26:15;;;;;;;23.30;13.55;;;3.90;99.90;;;;;;5053790;28;20401;-58
2020/12/01 08:28:54;;;;;;;21.05;16.33;;;3.90;99.90;;;;;;5050500;28;20504;-58
2020/12/01 08:31:47;;;;;;;19.20;12.98;;;3.90;99.90;;;;;;5053814;28;20204;-58
2020/12/01 08:34:33;;;;;;;18.70;12.93;;;4.00;99.90;;;;;;5054610;28;20263;-58
2020/12/01 08:45:19;;;;;;;20.90;15.05;;;4.10;99.90;;;;;;5943173;22;20439;-58
2020/12/01 08:47:45;;;;;;;21.35;16.13;;;4.10;99.90;;;;;;5071810;28;20451;-56
2020/12/01 08:50:34;;;;;;;20.58;16.70;;;4.10;99.90;;;;;;5073039;28;20729;-57
2020/12/01 08:53:18;;;;;;;20.00;14.23;;;4.20;99.90;;;;;;5066464;28;20196;-59
2020/12/01 08:55:51;;;;;;;20.17;16.17;;;4.10;99.90;;;;;;5073797;28;20430;-59
2020/12/01 08:58:23;;;;;;;22.00;16.23;;;4.20;99.90;;;;;;5073905;28;20417;-59
2020/12/01 09:01:03;;;;;;;21.20;13.57;;;4.10;99.90;;;;;;5074139;28;20547;-58
2020/12/01 09:03:31;;;;;;;19.60;13.90;;;4.20;99.90;;;;;;5073880;28;20164;-59
2020/12/01 09:05:57;;;;;;;19.02;12.60;;;4.20;99.90;;;;;;5074475;28;20259;-58
2020/12/01 09:08:37;;;;;;;21.88;15.35;;;4.20;99.90;;;;;;5073952;28;20418;-59
2020/12/01 09:11:11;;;;;;;22.15;13.30;;;4.20;99.90;;;;;;5072099;28;20159;-59
2020/12/01 09:13:41;;;;;;;18.88;12.82;;;4.20;99.90;;;;;;5074083;28;20196;-59
2020/12/01 09:19:21;;;;;;;19.80;12.50;;;4.20;99.90;;;;;;5072622;28;20153;-58
2020/12/01 09:24:24;;;;;;;19.73;13.18;;;4.20;99.90;;;;;;5072722;28;20294;-59
2020/12/01 09:27:09;;;;;;;20.23;13.63;;;4.20;99.90;;;;;;5072591;28;20163;-59
2020/12/01 09:29:35;;;;;;;21.60;13.70;;;4.20;99.90;;;;;;5072722;28;20481;-59
2020/12/01 09:32:02;;;;;;;21.95;14.60;;;4.20;99.90;;;;;;5073940;28;20209;-59
2020/12/01 09:34:32;;;;;;;23.48;15.25;;;4.30;99.90;;;;;;5073807;28;20300;-59
2020/12/01 09:37:01;;;;;;;21.35;13.88;;;4.30;99.90;;;;;;5073686;28;20170;-59
2020/12/01 09:39:27;;;;;;;22.48;14.27;;;4.40;99.90;;;;;;5073705;28;20172;-58
2020/12/01 09:42:40;;;;;;;22.20;13.90;;;4.50;99.90;;;;;;5073146;28;20488;-58
2020/12/01 09:44:55;;;;;;;20.98;14.18;;;4.50;99.90;;;;;;5066931;28;20180;-58
2020/12/01 09:47:35;;;;;;;22.45;14.18;;;4.60;99.90;;;;;;5074097;28;20604;-57
2020/12/01 09:50:00;;;;;;;21.63;14.30;;;4.70;99.90;;;;;;5074797;28;20177;-57
2020/12/01 09:52:34;;;;;;;24.05;15.05;;;4.70;99.90;;;;;;5073323;28;20172;-57
2020/12/01 09:55:18;;;;;;;23.85;13.98;;;4.70;99.90;;;;;;5076161;28;20184;-58
2020/12/01 09:58:07;;;;;;;23.80;14.55;;;4.80;99.90;;;;;;5087912;28;20160;-57
2020/12/01 10:04:36;;;;;;;22.52;13.85;;;4.90;99.90;;;;;;5077796;28;20155;-57
2020/12/01 10:20:32;;;;;;;25.92;15.98;;;5.10;99.90;;;;;;5077194;28;20159;-56
2020/12/01 10:36:01;;;;;;;25.38;15.38;;;5.10;99.90;;;;;;5076655;28;20163;-56
2020/12/01 10:38:29;;;;;;;21.92;14.77;;;5.10;99.90;;;;;;5075678;28;20252;-56
2020/12/01 10:40:55;;;;;;;27.17;18.90;;;5.20;99.90;;;;;;5074818;28;20434;-57
2020/12/01 10:43:20;;;;;;;25.23;18.27;;;5.20;99.90;;;;;;5075895;28;20778;-56
2020/12/01 10:45:46;;;;;;;25.43;18.67;;;5.10;99.90;;;;;;5075767;28;20491;-59
2020/12/01 10:48:11;;;;;;;25.02;16.23;;;5.10;99.90;;;;;;5077611;28;20172;-56
2020/12/01 10:50:37;;;;;;;24.27;16.15;;;5.10;99.90;;;;;;5077190;28;20168;-58
2020/12/01 10:53:02;;;;;;;23.52;15.48;;;5.20;99.90;;;;;;5076675;28;20235;-59
2020/12/01 10:55:30;;;;;;;25.27;16.45;;;5.20;99.90;;;;;;5076066;28;20168;-58
2020/12/01 10:57:56;;;;;;;25.45;17.50;;;5.20;99.90;;;;;;5075522;28;20414;-58
2020/12/01 11:00:25;;;;;;;25.02;15.55;;;5.20;99.90;;;;;;5076517;28;20168;-58
2020/12/01 11:02:51;;;;;;;24.77;16.80;;;5.20;99.90;;;;;;5075020;28;20406;-58
2020/12/01 11:05:25;;;;;;;25.17;17.27;;;5.10;99.90;;;;;;5075538;28;20413;-57
2020/12/01 11:07:51;;;;;;;24.48;15.27;;;5.10;99.90;;;;;;5075706;28;20159;-56
2020/12/01 11:10:16;;;;;;;23.67;18.45;;;5.10;99.90;;;;;;5075714;28;20781;-59
2020/12/01 11:12:42;;;;;;;25.35;16.35;;;5.10;99.90;;;;;;5076198;28;20175;-57
2020/12/01 11:15:08;;;;;;;21.95;14.85;;;5.10;99.90;;;;;;5076250;28;20191;-59
2020/12/01 11:17:33;;;;;;;24.08;15.63;;;5.00;99.90;;;;;;5076182;28;20241;-57
2020/12/01 11:19:59;;;;;;;22.00;14.32;;;5.10;99.90;;;;;;5076543;28;20176;-58
2020/12/01 11:22:24;;;;;;;22.67;15.00;;;5.10;99.90;;;;;;5076058;28;20164;-58
2020/12/01 11:24:50;;;;;;;23.00;14.65;;;5.10;99.90;;;;;;5076156;28;20508;-58
2020/12/01 11:27:15;;;;;;;25.67;15.20;;;5.10;99.90;;;;;;5075921;28;20225;-58
2020/12/01 11:29:41;;;;;;;24.13;15.57;;;5.20;99.90;;;;;;5074412;28;20187;-58
2020/12/01 11:32:06;;;;;;;21.67;13.95;;;5.20;99.90;;;;;;5074443;28;20511;-58
2020/12/01 11:34:32;;;;;;;23.38;14.65;;;5.30;99.90;;;;;;5074235;28;20234;-58
2020/12/01 11:36:57;;;;;;;23.00;14.95;;;5.30;99.90;;;;;;5074424;28;20254;-58
2020/12/01 11:39:23;;;;;;;22.60;13.63;;;5.40;99.90;;;;;;5074081;28;20168;-58
2020/12/01 11:41:48;;;;;;;22.20;14.40;;;5.40;99.90;;;;;;5074868;28;20179;-58
2020/12/01 11:44:14;;;;;;;23.77;14.73;;;5.40;99.90;;;;;;5075043;28;20165;-58
2020/12/01 11:46:41;;;;;;;25.73;15.23;;;5.40;99.90;;;;;;5075615;28;20191;-58
2020/12/01 11:49:07;;;;;;;21.90;14.68;;;5.40;99.90;;;;;;5075659;28;20191;-58
2020/12/01 11:51:34;;;;;;;22.42;14.88;;;5.40;99.90;;;;;;5074378;28;20508;-58
2020/12/01 11:53:59;;;;;;;22.90;15.50;;;5.40;99.90;;;;;;5073397;28;20632;-57
2020/12/01 11:56:25;;;;;;;23.50;15.15;;;5.40;99.90;;;;;;5073361;28;20168;-57
2020/12/01 11:58:50;;;;;;;21.52;14.80;;;5.40;99.90;;;;;;5073330;28;20171;-57
2020/12/01 12:01:16;;;;;;;23.17;14.10;;;5.40;99.90;;;;;;5073051;28;20169;-57
2020/12/01 12:03:42;;;;;;;23.13;15.07;;;5.50;99.90;;;;;;5073607;28;20266;-57
2020/12/01 12:06:08;;;;;;;19.77;13.48;;;5.50;99.90;;;;;;5073772;28;20168;-57
2020/12/01 12:08:33;;;;;;;22.92;14.68;;;5.40;99.90;;;;;;5074603;28;20176;-57
2020/12/01 12:10:59;;;;;;;20.58;13.48;;;5.40;99.90;;;;;;5074532;28;20168;-57
2020/12/01 12:13:25;;;;;;;23.48;15.18;;;5.50;99.90;;;;;;5074627;28;20192;-57
2020/12/01 12:15:50;;;;;;;23.05;14.68;;;5.50;99.90;;;;;;5074633;28;20576;-57
2020/12/01 12:18:16;;;;;;;23.33;14.68;;;5.50;99.90;;;;;;5073818;28;20592;-57
2020/12/01 12:20:41;;;;;;;22.48;14.25;;;5.50;99.90;;;;;;5073977;28;20179;-57
2020/12/01 12:23:07;;;;;;;22.23;14.02;;;5.50;99.90;;;;;;5073983;28;20214;-57
2020/12/01 12:25:32;;;;;;;22.23;14.02;;;5.50;99.90;;;;;;5073329;28;20452;-57
2020/12/01 12:27:58;;;;;;;21.80;13.77;;;5.50;99.90;;;;;;5074255;28;20168;-58
2020/12/01 12:30:23;;;;;;;20.92;13.45;;;5.50;99.90;;;;;;5074409;28;20471;-58
2020/12/01 12:32:49;;;;;;;23.58;14.38;;;5.50;99.90;;;;;;5074077;28;20176;-58
2020/12/01 12:35:14;;;;;;;23.30;14.88;;;5.50;99.90;;;;;;5074057;28;20160;-58
2020/12/01 12:37:40;;;;;;;22.42;14.35;;;5.50;99.90;;;;;;5074017;28;20164;-58
2020/12/01 12:40:06;;;;;;;23.80;15.57;;;5.40;99.90;;;;;;5073843;28;20176;-58
2020/12/01 12:42:32;;;;;;;24.30;14.85;;;5.40;99.90;;;;;;5073796;28;20171;-58
2020/12/01 12:44:57;;;;;;;21.98;15.20;;;5.40;99.90;;;;;;5073286;28;20489;-58
2020/12/01 12:47:23;;;;;;;24.92;15.23;;;5.40;99.90;;;;;;5073005;28;20213;-58
2020/12/01 12:49:48;;;;;;;25.85;15.50;;;5.40;99.90;;;;;;5073304;28;20241;-58
2020/12/01 12:52:14;;;;;;;22.40;14.45;;;5.40;99.90;;;;;;5073117;28;20196;-58
2020/12/01 12:54:40;;;;;;;23.50;15.63;;;5.50;99.90;;;;;;5072534;28;20188;-58
2020/12/01 12:57:05;;;;;;;22.95;14.55;;;5.50;99.90;;;;;;5072650;28;20168;-58
2020/12/01 12:59:31;;;;;;;21.92;14.35;;;5.60;99.90;;;;;;5072653;28;20168;-57
2020/12/01 13:01:56;;;;;;;24.00;15.60;;;5.60;99.90;;;;;;5072686;28;20217;-58
2020/12/01 13:04:23;;;;;;;22.45;14.52;;;5.70;99.90;;;;;;5073611;28;20604;-58
2020/12/01 13:06:49;;;;;;;22.15;14.85;;;5.70;99.90;;;;;;5074548;28;20168;-58
2020/12/01 13:09:14;;;;;;;21.95;14.73;;;5.70;99.90;;;;;;5074432;28;20191;-58
2020/12/01 13:11:40;;;;;;;23.02;14.00;;;5.60;99.90;;;;;;5074395;28;20164;-58
2020/12/01 13:14:05;;;;;;;23.52;14.63;;;5.60;99.90;;;;;;5074115;28;20196;-58
2020/12/01 13:16:31;;;;;;;22.58;14.73;;;5.60;99.90;;;;;;5074459;28;20168;-58
2020/12/01 13:18:56;;;;;;;21.63;13.82;;;5.50;99.90;;;;;;5074349;28;20175;-58
2020/12/01 13:21:22;;;;;;;20.30;14.48;;;5.50;99.90;;;;;;5074473;28;20222;-58
2020/12/01 13:23:48;;;;;;;24.27;15.43;;;5.40;99.90;;;;;;5074377;28;20168;-57
2020/12/01 13:26:17;;;;;;;27.33;14.63;;;5.40;99.90;;;;;;5074466;28;20543;-57
2020/12/01 13:28:43;;;;;;;24.45;15.13;;;5.30;99.90;;;;;;5074154;28;20166;-57
2020/12/01 13:31:08;;;;;;;24.10;14.80;;;5.30;99.90;;;;;;5076658;28;20191;-58
2020/12/01 13:33:34;;;;;;;22.25;14.40;;;5.30;99.90;;;;;;5078336;28;20196;-58
2020/12/01 13:35:59;;;;;;;23.10;15.35;;;5.30;99.90;;;;;;5077510;28;20481;-57
2020/12/01 13:38:25;;;;;;;22.70;14.98;;;5.30;99.90;;;;;;5078339;28;20218;-57